JJP983 RJFF-RJCC
Flight info
| Callsign | JJP983 |
|---|---|
| Flight time | N/A |
| Altitude | 35000 |
| Route | BUTUR Y453 MARCO Y141 SAMON Y14 GOLDO Y19 MRE Y13 SIRAO Y139 NAVER |
| Aircraft | A320/M-SDE3FGHIRWY/LB1 |
Departure
| Time | 2026-04-28 13:37 |
|---|---|
| Airport | Fukuoka Airport (RJFF) |
Arrival
| Time | N/A |
|---|---|
| Airport | New Chitose Airport (RJCC) |
| Time | Latitude | Longitude | Altitude | Speed | Heading |
|---|---|---|---|---|---|
| 2026-04-28 13:23 | 33.60096 | 130.44473 | 25 ft | 0 kts | 60° |
| 2026-04-28 13:32 | 33.60084 | 130.44449 | 28 ft | 4 kts | 56° |
| 2026-04-28 13:32 | 33.60068 | 130.44423 | 28 ft | 4 kts | 47° |
| 2026-04-28 13:32 | 33.60049 | 130.44402 | 30 ft | 4 kts | 23° |
| 2026-04-28 13:32 | 33.60033 | 130.44397 | 27 ft | 0 kts | 354° |
| 2026-04-28 13:34 | 33.60041 | 130.44401 | 27 ft | 1 kts | 31° |
| 2026-04-28 13:35 | 33.60025 | 130.44418 | 26 ft | 7 kts | 151° |
| 2026-04-28 13:35 | 33.59949 | 130.44465 | 26 ft | 14 kts | 161° |
| 2026-04-28 13:35 | 33.59877 | 130.44425 | 28 ft | 12 kts | 231° |
| 2026-04-28 13:35 | 33.59818 | 130.44359 | 24 ft | 13 kts | 207° |
| 2026-04-28 13:36 | 33.59716 | 130.44338 | 24 ft | 16 kts | 188° |
| 2026-04-28 13:36 | 33.59640 | 130.44350 | 27 ft | 10 kts | 151° |
| 2026-04-28 13:36 | 33.59457 | 130.44474 | 24 ft | 65 kts | 150° |
| 2026-04-28 13:36 | 33.58865 | 130.44876 | 30 ft | 127 kts | 151° |
| 2026-04-28 13:37 | 33.57954 | 130.45496 | 63 ft | 170 kts | 152° |
| 2026-04-28 13:37 | 33.56917 | 130.46213 | 667 ft | 172 kts | 151° |
| 2026-04-28 13:37 | 33.55893 | 130.46934 | 1413 ft | 171 kts | 143° |
| 2026-04-28 13:37 | 33.55217 | 130.48084 | 2076 ft | 172 kts | 105° |
| 2026-04-28 13:38 | 33.55207 | 130.49500 | 2678 ft | 171 kts | 79° |
| 2026-04-28 13:38 | 33.55421 | 130.50899 | 3250 ft | 172 kts | 80° |
| 2026-04-28 13:38 | 33.55645 | 130.52385 | 3551 ft | 192 kts | 79° |
| 2026-04-28 13:38 | 33.55895 | 130.54049 | 3829 ft | 214 kts | 79° |
| 2026-04-28 13:39 | 33.56171 | 130.55887 | 4118 ft | 239 kts | 79° |
| 2026-04-28 13:39 | 33.56481 | 130.57952 | 4554 ft | 264 kts | 79° |
| 2026-04-28 13:39 | 33.56814 | 130.60198 | 5002 ft | 282 kts | 79° |
| 2026-04-28 13:39 | 33.57161 | 130.62554 | 5796 ft | 290 kts | 79° |
| 2026-04-28 13:40 | 33.57516 | 130.64962 | 6653 ft | 297 kts | 79° |
| 2026-04-28 13:40 | 33.57878 | 130.67433 | 7419 ft | 304 kts | 79° |
| 2026-04-28 13:40 | 33.58245 | 130.69954 | 8215 ft | 310 kts | 79° |
| 2026-04-28 13:40 | 33.58617 | 130.72526 | 9006 ft | 316 kts | 80° |
| 2026-04-28 13:41 | 33.58993 | 130.75139 | 9799 ft | 321 kts | 80° |
| 2026-04-28 13:41 | 33.59380 | 130.77826 | 10318 ft | 337 kts | 81° |
| 2026-04-28 13:41 | 33.59791 | 130.80688 | 10541 ft | 360 kts | 81° |
| 2026-04-28 13:41 | 33.60225 | 130.83712 | 10962 ft | 373 kts | 81° |
| 2026-04-28 13:42 | 33.60672 | 130.86814 | 11577 ft | 380 kts | 81° |
| 2026-04-28 13:42 | 33.61125 | 130.89956 | 12298 ft | 386 kts | 81° |
| 2026-04-28 13:42 | 33.61589 | 130.93160 | 12997 ft | 393 kts | 81° |
| 2026-04-28 13:42 | 33.62059 | 130.96417 | 13745 ft | 399 kts | 81° |
| 2026-04-28 13:43 | 33.62535 | 130.99715 | 14375 ft | 404 kts | 81° |
| 2026-04-28 13:43 | 33.63009 | 131.03021 | 14919 ft | 410 kts | 81° |
| 2026-04-28 13:43 | 33.63491 | 131.06409 | 15493 ft | 414 kts | 81° |
| 2026-04-28 13:43 | 33.63979 | 131.09850 | 16089 ft | 420 kts | 81° |
| 2026-04-28 13:44 | 33.64471 | 131.13323 | 16692 ft | 425 kts | 82° |
| 2026-04-28 13:44 | 33.64968 | 131.16828 | 17264 ft | 428 kts | 82° |
| 2026-04-28 13:44 | 33.65469 | 131.20377 | 17815 ft | 433 kts | 82° |
| 2026-04-28 13:44 | 33.65972 | 131.23959 | 18332 ft | 438 kts | 82° |
| 2026-04-28 13:45 | 33.66479 | 131.27580 | 18791 ft | 442 kts | 82° |
| 2026-04-28 13:45 | 33.66990 | 131.31237 | 19293 ft | 446 kts | 81° |
| 2026-04-28 13:45 | 33.67511 | 131.34940 | 19755 ft | 451 kts | 81° |
| 2026-04-28 13:45 | 33.68036 | 131.38666 | 20265 ft | 454 kts | 81° |
| 2026-04-28 13:46 | 33.68562 | 131.42417 | 20756 ft | 458 kts | 81° |
| 2026-04-28 13:46 | 33.69091 | 131.46202 | 21214 ft | 461 kts | 81° |
| 2026-04-28 13:46 | 33.69623 | 131.50017 | 21666 ft | 465 kts | 81° |
| 2026-04-28 13:46 | 33.70158 | 131.53864 | 22115 ft | 469 kts | 81° |
| 2026-04-28 13:47 | 33.70809 | 131.57714 | 22545 ft | 472 kts | 73° |
| 2026-04-28 13:47 | 33.71930 | 131.61426 | 23025 ft | 474 kts | 63° |
| 2026-04-28 13:47 | 33.73530 | 131.64888 | 23495 ft | 474 kts | 52° |
| 2026-04-28 13:47 | 33.75545 | 131.68013 | 23859 ft | 473 kts | 45° |
| 2026-04-28 13:48 | 33.77682 | 131.71041 | 24231 ft | 477 kts | 45° |
| 2026-04-28 13:48 | 33.79827 | 131.74100 | 24608 ft | 479 kts | 46° |
| 2026-04-28 13:48 | 33.81977 | 131.77188 | 24975 ft | 483 kts | 46° |
| 2026-04-28 13:48 | 33.84106 | 131.80256 | 25328 ft | 485 kts | 46° |
| 2026-04-28 13:49 | 33.86277 | 131.83387 | 25716 ft | 489 kts | 46° |
| 2026-04-28 13:49 | 33.88462 | 131.86537 | 26077 ft | 492 kts | 46° |
| 2026-04-28 13:49 | 33.90660 | 131.89706 | 26438 ft | 495 kts | 46° |
| 2026-04-28 13:49 | 33.92870 | 131.92898 | 26792 ft | 498 kts | 46° |
| 2026-04-28 13:50 | 33.95093 | 131.96111 | 27137 ft | 501 kts | 46° |
| 2026-04-28 13:50 | 33.97329 | 131.99343 | 27477 ft | 504 kts | 46° |
| 2026-04-28 13:50 | 33.99585 | 132.02601 | 27846 ft | 507 kts | 46° |
| 2026-04-28 13:50 | 34.01853 | 132.05877 | 28200 ft | 511 kts | 46° |
| 2026-04-28 13:51 | 34.04136 | 132.09180 | 28553 ft | 514 kts | 46° |
| 2026-04-28 13:51 | 34.06432 | 132.12508 | 28930 ft | 517 kts | 46° |
| 2026-04-28 13:51 | 34.08873 | 132.15668 | 29293 ft | 515 kts | 38° |
| 2026-04-28 13:51 | 34.11563 | 132.18528 | 29662 ft | 517 kts | 36° |
| 2026-04-28 13:52 | 34.14285 | 132.21389 | 29993 ft | 520 kts | 36° |
| 2026-04-28 13:52 | 34.17021 | 132.24268 | 30284 ft | 523 kts | 36° |
| 2026-04-28 13:52 | 34.19768 | 132.27159 | 30586 ft | 525 kts | 36° |
| 2026-04-28 13:52 | 34.22524 | 132.30066 | 30913 ft | 526 kts | 36° |
| 2026-04-28 13:53 | 34.25278 | 132.32976 | 31399 ft | 525 kts | 35° |
| 2026-04-28 13:53 | 34.28025 | 132.35883 | 31847 ft | 523 kts | 35° |
| 2026-04-28 13:53 | 34.30758 | 132.38782 | 32298 ft | 522 kts | 35° |
| 2026-04-28 13:53 | 34.33482 | 132.41669 | 32732 ft | 521 kts | 35° |
| 2026-04-28 13:54 | 34.36207 | 132.44554 | 33211 ft | 519 kts | 35° |
| 2026-04-28 13:54 | 34.38921 | 132.47430 | 33679 ft | 518 kts | 35° |
| 2026-04-28 13:54 | 34.41627 | 132.50304 | 34127 ft | 517 kts | 35° |
| 2026-04-28 13:54 | 34.44328 | 132.53172 | 34538 ft | 515 kts | 34° |
| 2026-04-28 13:55 | 34.46986 | 132.55997 | 34866 ft | 514 kts | 34° |
| 2026-04-28 13:55 | 34.49707 | 132.58891 | 34989 ft | 513 kts | 34° |
| 2026-04-28 13:55 | 34.55026 | 132.64561 | 34993 ft | 512 kts | 34° |
| 2026-04-28 13:56 | 34.60363 | 132.70268 | 35004 ft | 511 kts | 34° |
| 2026-04-28 13:56 | 34.65703 | 132.75981 | 35005 ft | 511 kts | 34° |
| 2026-04-28 13:57 | 34.71045 | 132.81689 | 35006 ft | 511 kts | 34° |
| 2026-04-28 13:57 | 34.76385 | 132.87409 | 35055 ft | 512 kts | 34° |
| 2026-04-28 13:58 | 34.81717 | 132.93150 | 35039 ft | 512 kts | 34° |
| 2026-04-28 13:58 | 34.86143 | 132.97926 | 35047 ft | 512 kts | 34° |
| 2026-04-28 13:59 | 34.91479 | 133.03681 | 35048 ft | 512 kts | 34° |
| 2026-04-28 13:59 | 34.96803 | 133.09433 | 35046 ft | 512 kts | 34° |
| 2026-04-28 14:00 | 35.02123 | 133.15190 | 35070 ft | 511 kts | 34° |
| 2026-04-28 14:00 | 35.07434 | 133.20951 | 35050 ft | 511 kts | 34° |
| 2026-04-28 14:01 | 35.12758 | 133.26722 | 35032 ft | 512 kts | 34° |
| 2026-04-28 14:01 | 35.18084 | 133.32507 | 35033 ft | 513 kts | 34° |
| 2026-04-28 14:02 | 35.23417 | 133.38315 | 35028 ft | 514 kts | 34° |
| 2026-04-28 14:02 | 35.28757 | 133.44147 | 35033 ft | 515 kts | 34° |
| 2026-04-28 14:03 | 35.34103 | 133.49993 | 35028 ft | 516 kts | 34° |
| 2026-04-28 14:03 | 35.39458 | 133.55857 | 35071 ft | 517 kts | 34° |
| 2026-04-28 14:04 | 35.44820 | 133.61744 | 35057 ft | 517 kts | 34° |
| 2026-04-28 14:04 | 35.50185 | 133.67640 | 35035 ft | 518 kts | 34° |
| 2026-04-28 14:05 | 35.55544 | 133.73553 | 35070 ft | 518 kts | 34° |
| 2026-04-28 14:05 | 35.60868 | 133.79444 | 35057 ft | 518 kts | 34° |
| 2026-04-28 14:06 | 35.66264 | 133.85417 | 35065 ft | 519 kts | 34° |
| 2026-04-28 14:06 | 35.71594 | 133.91318 | 35064 ft | 519 kts | 34° |
| 2026-04-28 14:07 | 35.76962 | 133.97281 | 35088 ft | 519 kts | 34° |
| 2026-04-28 14:07 | 35.82325 | 134.03241 | 35076 ft | 519 kts | 34° |
| 2026-04-28 14:08 | 35.87679 | 134.09200 | 35071 ft | 518 kts | 34° |
| 2026-04-28 14:08 | 35.93024 | 134.15177 | 35070 ft | 518 kts | 34° |
| 2026-04-28 14:09 | 35.98365 | 134.21153 | 35063 ft | 518 kts | 34° |
| 2026-04-28 14:09 | 36.03671 | 134.27105 | 35084 ft | 519 kts | 34° |
| 2026-04-28 14:10 | 36.09015 | 134.33114 | 35077 ft | 519 kts | 34° |
| 2026-04-28 14:10 | 36.14356 | 134.39121 | 35078 ft | 519 kts | 34° |
| 2026-04-28 14:11 | 36.19694 | 134.45133 | 35062 ft | 519 kts | 34° |
| 2026-04-28 14:11 | 36.24781 | 134.51568 | 35069 ft | 531 kts | 47° |
| 2026-04-28 14:12 | 36.28763 | 134.59373 | 35045 ft | 537 kts | 53° |
| 2026-04-28 14:12 | 36.32656 | 134.67289 | 35035 ft | 537 kts | 53° |
| 2026-04-28 14:13 | 36.36553 | 134.75204 | 35034 ft | 538 kts | 53° |
| 2026-04-28 14:13 | 36.40426 | 134.83085 | 35032 ft | 538 kts | 53° |
| 2026-04-28 14:14 | 36.44319 | 134.91041 | 35040 ft | 539 kts | 53° |
| 2026-04-28 14:14 | 36.48202 | 134.99020 | 35037 ft | 539 kts | 53° |
| 2026-04-28 14:15 | 36.52097 | 135.07008 | 35034 ft | 540 kts | 53° |
| 2026-04-28 14:15 | 36.55983 | 135.14997 | 35049 ft | 541 kts | 53° |
| 2026-04-28 14:16 | 36.59871 | 135.23027 | 35040 ft | 541 kts | 53° |
| 2026-04-28 14:16 | 36.63754 | 135.31076 | 35040 ft | 541 kts | 53° |
| 2026-04-28 14:17 | 36.67628 | 135.39113 | 35031 ft | 542 kts | 53° |
| 2026-04-28 14:17 | 36.71505 | 135.47170 | 35029 ft | 542 kts | 53° |
| 2026-04-28 14:18 | 36.75389 | 135.55244 | 35032 ft | 542 kts | 53° |
| 2026-04-28 14:18 | 36.79257 | 135.63325 | 35024 ft | 543 kts | 53° |
| 2026-04-28 14:19 | 36.83097 | 135.71366 | 35040 ft | 543 kts | 53° |
| 2026-04-28 14:19 | 36.86968 | 135.79478 | 35029 ft | 544 kts | 53° |
| 2026-04-28 14:20 | 36.90823 | 135.87603 | 35013 ft | 544 kts | 53° |
| 2026-04-28 14:20 | 36.94679 | 135.95755 | 35011 ft | 545 kts | 53° |
| 2026-04-28 14:21 | 36.98543 | 136.03927 | 35009 ft | 545 kts | 53° |
| 2026-04-28 14:21 | 37.02376 | 136.12045 | 35025 ft | 545 kts | 53° |
| 2026-04-28 14:22 | 37.06232 | 136.20224 | 35016 ft | 545 kts | 53° |
| 2026-04-28 14:22 | 37.10078 | 136.28417 | 35010 ft | 546 kts | 53° |
| 2026-04-28 14:23 | 37.13932 | 136.36635 | 35007 ft | 546 kts | 53° |
| 2026-04-28 14:23 | 37.17775 | 136.44864 | 35000 ft | 546 kts | 53° |
| 2026-04-28 14:24 | 37.21609 | 136.53102 | 35021 ft | 547 kts | 53° |
| 2026-04-28 14:24 | 37.25425 | 136.61305 | 35003 ft | 548 kts | 53° |
| 2026-04-28 14:25 | 37.29260 | 136.69583 | 34998 ft | 548 kts | 53° |
| 2026-04-28 14:25 | 37.33090 | 136.77869 | 34989 ft | 549 kts | 53° |
| 2026-04-28 14:26 | 37.36928 | 136.86183 | 34978 ft | 549 kts | 53° |
| 2026-04-28 14:26 | 37.40754 | 136.94491 | 34988 ft | 549 kts | 53° |
| 2026-04-28 14:27 | 37.44579 | 137.02810 | 34984 ft | 550 kts | 53° |
| 2026-04-28 14:27 | 37.48408 | 137.11173 | 34980 ft | 550 kts | 53° |
| 2026-04-28 14:28 | 37.52225 | 137.19536 | 34994 ft | 551 kts | 53° |
| 2026-04-28 14:28 | 37.56017 | 137.27870 | 34984 ft | 551 kts | 53° |
| 2026-04-28 14:29 | 37.59830 | 137.36263 | 35005 ft | 552 kts | 53° |
| 2026-04-28 14:29 | 37.63640 | 137.44664 | 34990 ft | 552 kts | 53° |
| 2026-04-28 14:30 | 37.67452 | 137.53094 | 34980 ft | 553 kts | 53° |
| 2026-04-28 14:30 | 37.71258 | 137.61531 | 34988 ft | 553 kts | 53° |
| 2026-04-28 14:31 | 37.75062 | 137.69991 | 34984 ft | 554 kts | 53° |
| 2026-04-28 14:31 | 37.78864 | 137.78465 | 34983 ft | 554 kts | 53° |
| 2026-04-28 14:32 | 37.82665 | 137.86968 | 34988 ft | 555 kts | 53° |
| 2026-04-28 14:32 | 37.86459 | 137.95483 | 34982 ft | 555 kts | 53° |
| 2026-04-28 14:33 | 37.90245 | 138.04005 | 34976 ft | 555 kts | 53° |
| 2026-04-28 14:33 | 37.94031 | 138.12532 | 34975 ft | 555 kts | 53° |
| 2026-04-28 14:34 | 37.99681 | 138.25279 | 35012 ft | 556 kts | 53° |
| 2026-04-28 14:35 | 38.03467 | 138.33845 | 34982 ft | 555 kts | 51° |
| 2026-04-28 14:35 | 38.05616 | 138.37853 | 34978 ft | 544 kts | 42° |
| 2026-04-28 14:35 | 38.08106 | 138.41389 | 34978 ft | 531 kts | 33° |
| 2026-04-28 14:35 | 38.10868 | 138.44400 | 34998 ft | 517 kts | 24° |
| 2026-04-28 14:36 | 38.13820 | 138.46915 | 34994 ft | 507 kts | 19° |
| 2026-04-28 14:36 | 38.19783 | 138.51759 | 34960 ft | 508 kts | 19° |
| 2026-04-28 14:37 | 38.25716 | 138.56637 | 34963 ft | 509 kts | 19° |
| 2026-04-28 14:37 | 38.31673 | 138.61551 | 34964 ft | 510 kts | 19° |
| 2026-04-28 14:38 | 38.37590 | 138.66433 | 34969 ft | 510 kts | 19° |
| 2026-04-28 14:38 | 38.43558 | 138.71361 | 34986 ft | 511 kts | 19° |
| 2026-04-28 14:39 | 38.49539 | 138.76312 | 34965 ft | 512 kts | 19° |
| 2026-04-28 14:39 | 38.55512 | 138.81278 | 34994 ft | 513 kts | 19° |
| 2026-04-28 14:40 | 38.61503 | 138.86258 | 34989 ft | 514 kts | 19° |
| 2026-04-28 14:40 | 38.67497 | 138.91241 | 34985 ft | 514 kts | 19° |
| 2026-04-28 14:41 | 38.73506 | 138.96246 | 34991 ft | 515 kts | 19° |
| 2026-04-28 14:41 | 38.79504 | 139.01259 | 34966 ft | 513 kts | 18° |
| 2026-04-28 14:42 | 38.85472 | 139.06272 | 34961 ft | 512 kts | 18° |
| 2026-04-28 14:42 | 38.90981 | 139.10895 | 34987 ft | 513 kts | 18° |